createdAt,value
2023-04-15T00:01:11.760Z,3.15
2023-04-15T00:03:39.422Z,3.42
2023-04-15T00:06:06.863Z,3.60
2023-04-15T00:08:34.154Z,3.70
2023-04-15T00:11:03.291Z,3.65
2023-04-15T00:13:30.440Z,3.88
2023-04-15T00:15:57.514Z,3.83
2023-04-15T00:18:24.866Z,4.65
2023-04-15T00:20:52.526Z,3.85
2023-04-15T00:23:19.599Z,3.17
2023-04-15T00:25:47.281Z,3.97
2023-04-15T00:28:14.693Z,3.75
2023-04-15T00:30:43.306Z,3.58
2023-04-15T00:33:10.632Z,3.58
2023-04-15T00:35:38.104Z,4.38
2023-04-15T00:38:07.156Z,4.85
2023-04-15T00:40:35.352Z,4.38
2023-04-15T00:43:02.540Z,5.53
2023-04-15T00:45:30.364Z,2.85
2023-04-15T00:47:57.543Z,3.60
2023-04-15T00:50:24.739Z,3.10
2023-04-15T00:52:51.943Z,2.90
2023-04-15T00:55:19.241Z,3.00
2023-04-15T00:57:46.661Z,3.08
2023-04-15T01:00:13.970Z,3.15
2023-04-15T01:02:41.446Z,3.22
2023-04-15T01:05:09.378Z,3.45
2023-04-15T01:07:36.752Z,3.38
2023-04-15T01:10:04.713Z,3.20
2023-04-15T01:12:33.180Z,3.17
2023-04-15T01:15:00.389Z,3.03
2023-04-15T01:17:27.738Z,2.95
2023-04-15T01:19:57.743Z,4.35
2023-04-15T01:22:26.702Z,3.10
2023-04-15T01:25:08.864Z,3.63
2023-04-15T01:27:39.967Z,3.05
2023-04-15T01:30:07.942Z,3.15
2023-04-15T01:32:35.141Z,3.53
2023-04-15T01:35:02.806Z,2.92
2023-04-15T01:37:30.757Z,3.00
2023-04-15T01:39:58.076Z,3.58
2023-04-15T01:42:25.273Z,3.78
2023-04-15T01:44:53.606Z,3.88
2023-04-15T01:47:20.679Z,4.32
2023-04-15T01:49:48.159Z,3.15
2023-04-15T01:52:15.729Z,3.53
2023-04-15T01:54:42.778Z,2.97
2023-04-15T01:57:15.889Z,3.85
2023-04-15T01:59:42.983Z,3.05
2023-04-15T02:02:10.551Z,3.63
2023-04-15T02:04:38.055Z,3.45
2023-04-15T02:07:05.021Z,3.40
2023-04-15T02:09:32.009Z,3.10
2023-04-15T02:11:59.425Z,3.40
2023-04-15T02:14:27.000Z,3.03
2023-04-15T02:16:54.764Z,3.65
2023-04-15T02:19:22.038Z,3.58
2023-04-15T02:21:49.090Z,2.70
2023-04-15T02:24:18.155Z,3.15
2023-04-15T02:26:45.372Z,3.58
2023-04-15T02:29:12.355Z,2.58
2023-04-15T02:31:42.124Z,3.13
2023-04-15T02:34:09.279Z,2.95
2023-04-15T02:36:36.275Z,3.83
2023-04-15T02:39:05.258Z,3.22
2023-04-15T02:41:32.587Z,4.57
2023-04-15T02:43:59.675Z,3.03
2023-04-15T02:46:27.420Z,3.33
2023-04-15T02:48:54.630Z,3.17
2023-04-15T02:51:24.566Z,3.03
2023-04-15T02:53:51.660Z,3.55
2023-04-15T02:56:19.666Z,4.15
2023-04-15T02:58:47.008Z,4.18
2023-04-15T03:01:14.559Z,3.17
2023-04-15T03:03:42.313Z,3.53
2023-04-15T03:06:09.492Z,3.90
2023-04-15T03:08:37.305Z,3.38
2023-04-15T03:11:04.958Z,3.83
2023-04-15T03:13:33.298Z,3.33
2023-04-15T03:16:06.707Z,4.03
2023-04-15T03:18:33.874Z,3.50
2023-04-15T03:21:03.711Z,3.42
2023-04-15T03:23:34.786Z,3.88
2023-04-15T03:26:03.742Z,4.03
2023-04-15T03:28:32.722Z,3.47
2023-04-15T03:31:00.558Z,3.72
2023-04-15T03:33:27.690Z,3.90
2023-04-15T03:35:54.949Z,4.60
2023-04-15T03:38:21.951Z,3.42
2023-04-15T03:40:48.956Z,3.65
2023-04-15T03:43:16.506Z,3.92
2023-04-15T03:45:43.581Z,3.13
2023-04-15T03:48:16.437Z,3.58
2023-04-15T03:50:44.616Z,3.50
2023-04-15T03:53:11.662Z,3.95
2023-04-15T03:55:38.685Z,4.30
2023-04-15T03:58:06.079Z,3.30
2023-04-15T04:00:33.149Z,3.25
2023-04-15T04:03:00.368Z,3.40
2023-04-15T04:05:27.470Z,3.40
2023-04-15T04:07:54.494Z,3.17
2023-04-15T04:10:21.510Z,3.47
2023-04-15T04:12:48.520Z,3.15
2023-04-15T04:15:15.992Z,3.17
2023-04-15T04:17:43.036Z,3.00
2023-04-15T04:20:10.386Z,3.33
2023-04-15T04:22:41.222Z,3.35
2023-04-15T04:25:10.056Z,3.80
2023-04-15T04:27:37.602Z,4.00
2023-04-15T04:30:06.389Z,4.22
2023-04-15T04:32:33.607Z,3.85
2023-04-15T04:35:00.903Z,4.22
2023-04-15T04:37:27.950Z,3.30
2023-04-15T04:39:55.014Z,3.95
2023-04-15T04:42:22.338Z,3.65
2023-04-15T04:44:49.367Z,3.30
2023-04-15T04:47:16.512Z,3.20
2023-04-15T04:49:43.638Z,2.85
2023-04-15T04:52:10.757Z,3.50
2023-04-15T04:54:37.739Z,3.08
2023-04-15T04:57:04.794Z,3.30
2023-04-15T04:59:31.965Z,4.00
2023-04-15T05:01:59.060Z,3.22
2023-04-15T05:04:26.442Z,3.88
2023-04-15T05:06:53.476Z,3.13
2023-04-15T05:09:20.736Z,3.53
2023-04-15T05:11:47.773Z,3.38
2023-04-15T05:14:14.768Z,3.67
2023-04-15T05:16:41.847Z,4.38
2023-04-15T05:19:08.871Z,3.83
2023-04-15T05:21:38.260Z,3.92
2023-04-15T05:24:07.446Z,4.50
2023-04-15T05:26:34.541Z,3.40
2023-04-15T05:29:02.017Z,3.50
2023-04-15T05:31:29.516Z,3.03
2023-04-15T05:33:56.643Z,3.10
2023-04-15T05:36:23.668Z,3.05
2023-04-15T05:38:50.873Z,3.75
2023-04-15T05:41:19.909Z,3.70
2023-04-15T05:43:47.052Z,3.17
2023-04-15T05:46:14.148Z,4.13
2023-04-15T05:48:41.571Z,4.20
2023-04-15T05:51:08.599Z,3.97
2023-04-15T05:53:35.863Z,3.85
2023-04-15T05:56:02.921Z,4.00
2023-04-15T05:58:29.901Z,4.68
2023-04-15T06:00:57.080Z,4.88
2023-04-15T06:03:24.259Z,4.45
2023-04-15T06:05:51.389Z,3.83
2023-04-15T06:08:19.182Z,4.03
2023-04-15T06:10:46.187Z,4.60
2023-04-15T06:13:13.237Z,4.05
2023-04-15T06:15:40.217Z,4.40
2023-04-15T06:18:07.193Z,4.15
2023-04-15T06:20:34.301Z,3.70
2023-04-15T06:23:01.357Z,4.00
2023-04-15T06:25:28.392Z,3.72
2023-04-15T06:27:55.357Z,3.92
2023-04-15T06:30:23.969Z,3.75
2023-04-15T06:32:51.654Z,4.47
2023-04-15T06:35:18.977Z,4.35
2023-04-15T06:37:46.201Z,3.63
2023-04-15T06:40:13.748Z,4.13
2023-04-15T06:42:41.796Z,4.50
2023-04-15T06:45:09.446Z,4.68
2023-04-15T06:47:36.721Z,4.68
2023-04-15T06:50:04.202Z,4.32
2023-04-15T06:52:31.615Z,4.50
2023-04-15T06:54:59.546Z,4.75
2023-04-15T06:57:26.632Z,5.00
2023-04-15T06:59:54.553Z,5.18
2023-04-15T07:02:21.947Z,5.75
2023-04-15T07:04:48.997Z,5.32
2023-04-15T07:07:17.448Z,6.80
2023-04-15T07:09:44.818Z,7.28
2023-04-15T07:12:11.933Z,6.60
2023-04-15T07:14:38.972Z,7.43
2023-04-15T07:17:06.633Z,7.15
2023-04-15T07:19:33.742Z,7.43
2023-04-15T07:22:00.956Z,7.20
2023-04-15T07:24:28.071Z,8.20
2023-04-15T07:26:59.480Z,6.32
2023-04-15T07:29:27.984Z,7.13
2023-04-15T07:31:57.006Z,6.75
2023-04-15T07:34:24.518Z,7.40
2023-04-15T07:36:52.048Z,7.55
2023-04-15T07:39:19.348Z,7.25
2023-04-15T07:41:46.588Z,6.90
2023-04-15T07:44:13.640Z,6.00
2023-04-15T07:46:41.180Z,5.55
2023-04-15T07:49:08.563Z,5.13
2023-04-15T07:51:35.623Z,5.47
2023-04-15T07:54:03.161Z,5.60
2023-04-15T07:56:30.429Z,3.38
2023-04-15T07:58:57.493Z,3.53
2023-04-15T08:01:24.489Z,2.03
2023-04-15T08:03:51.611Z,1.80
2023-04-15T08:06:18.773Z,1.88
2023-04-15T08:08:45.884Z,1.70
2023-04-15T08:11:13.345Z,1.60
2023-04-15T08:13:40.504Z,1.67
2023-04-15T08:16:13.587Z,1.27
2023-04-15T08:18:41.799Z,1.48
2023-04-15T08:21:09.352Z,1.80
2023-04-15T08:23:36.726Z,1.45
2023-04-15T08:26:03.792Z,1.65
2023-04-15T08:28:30.905Z,1.60
2023-04-15T08:30:58.473Z,2.33
2023-04-15T08:33:25.902Z,1.90
2023-04-15T08:35:52.878Z,1.63
2023-04-15T08:38:20.073Z,2.03
2023-04-15T08:40:47.109Z,2.40
2023-04-15T08:43:28.450Z,2.58
2023-04-15T08:45:55.783Z,2.45
2023-04-15T08:48:24.533Z,2.20
2023-04-15T08:50:52.144Z,3.00
2023-04-15T08:53:19.380Z,2.42
2023-04-15T08:55:51.170Z,2.47
2023-04-15T08:58:19.721Z,1.77
2023-04-15T09:00:47.358Z,2.17
2023-04-15T09:03:14.618Z,2.17
2023-04-15T09:05:42.326Z,2.30
2023-04-15T09:08:09.429Z,2.65
2023-04-15T09:10:36.700Z,2.47
2023-04-15T09:13:04.479Z,2.13
2023-04-15T09:15:33.192Z,2.20
2023-04-15T09:18:00.366Z,2.65
2023-04-15T09:20:27.404Z,2.15
2023-04-15T09:22:54.745Z,2.25
2023-04-15T09:25:21.722Z,2.22
2023-04-15T09:27:49.908Z,2.10
2023-04-15T09:30:17.859Z,2.42
2023-04-15T09:32:53.648Z,2.42
2023-04-15T09:35:22.300Z,3.10
2023-04-15T09:37:50.316Z,2.95
2023-04-15T09:40:34.496Z,2.40
2023-04-15T09:43:02.855Z,2.92
2023-04-15T09:45:30.149Z,1.98
2023-04-15T09:47:59.309Z,2.25
2023-04-15T09:50:29.734Z,1.92
2023-04-15T09:52:57.276Z,2.33
2023-04-15T09:55:24.359Z,2.10
2023-04-15T09:57:51.400Z,2.17
2023-04-15T10:00:18.778Z,1.90
2023-04-15T10:02:47.679Z,1.70
2023-04-15T10:05:17.521Z,1.92
2023-04-15T10:07:46.861Z,2.20
2023-04-15T10:10:14.971Z,2.03
2023-04-15T10:12:42.762Z,1.80
2023-04-15T10:15:16.445Z,2.10
2023-04-15T10:17:44.759Z,2.20
2023-04-15T10:20:14.464Z,2.22
2023-04-15T10:22:42.290Z,1.88
2023-04-15T10:25:10.499Z,2.03
2023-04-15T10:27:40.796Z,1.83
2023-04-15T10:30:09.151Z,2.20
2023-04-15T10:32:37.063Z,2.03
2023-04-15T10:35:06.256Z,2.53
2023-04-15T10:37:37.706Z,2.50
2023-04-15T10:40:23.800Z,2.53
2023-04-15T10:42:51.009Z,1.70
2023-04-15T10:45:19.333Z,2.15
2023-04-15T10:47:46.711Z,2.35
2023-04-15T10:50:13.905Z,3.67
2023-04-15T10:52:44.309Z,2.50
2023-04-15T10:55:15.896Z,3.22
2023-04-15T10:57:44.015Z,2.90
2023-04-15T11:00:19.336Z,2.60
2023-04-15T11:03:08.512Z,2.95
2023-04-15T11:05:41.774Z,3.05
2023-04-15T11:08:10.593Z,2.90
2023-04-15T11:10:37.577Z,2.80
2023-04-15T11:13:17.030Z,3.28
2023-04-15T11:15:45.646Z,3.58
2023-04-15T11:18:17.801Z,3.30
2023-04-15T11:20:54.821Z,3.50
2023-04-15T11:23:49.236Z,2.88
2023-04-15T11:26:16.585Z,5.43
2023-04-15T11:28:47.621Z,8.73
2023-04-15T11:31:17.616Z,3.90
2023-04-15T11:34:01.589Z,7.18
2023-04-15T11:36:30.302Z,4.15
2023-04-15T11:38:59.459Z,7.35
2023-04-15T11:41:26.543Z,9.43
2023-04-15T11:43:53.541Z,5.88
2023-04-15T11:46:22.617Z,5.90
2023-04-15T11:48:49.834Z,3.38
2023-04-15T11:51:17.039Z,3.28
2023-04-15T11:53:46.262Z,3.80
2023-04-15T11:56:24.518Z,3.95
2023-04-15T11:59:04.344Z,3.72
2023-04-15T12:01:42.619Z,4.00
2023-04-15T12:04:20.168Z,5.45
2023-04-15T12:06:49.505Z,5.93
2023-04-15T12:09:16.804Z,4.35
2023-04-15T12:11:47.038Z,3.65
2023-04-15T12:14:20.318Z,3.33
2023-04-15T12:16:51.643Z,2.75
2023-04-15T12:19:23.318Z,2.42
2023-04-15T12:21:51.105Z,3.13
2023-04-15T12:24:22.565Z,3.00
2023-04-15T12:26:53.149Z,2.67
2023-04-15T12:29:21.275Z,3.53
2023-04-15T12:31:53.940Z,3.20
2023-04-15T12:36:57.625Z,2.33
2023-04-15T12:39:27.223Z,2.60
2023-04-15T12:41:55.884Z,3.10
2023-04-15T12:44:24.040Z,2.95
2023-04-15T12:46:53.430Z,3.05
2023-04-15T12:49:21.783Z,2.35
2023-04-15T12:51:50.376Z,2.45
2023-04-15T12:54:18.438Z,2.17
2023-04-15T12:56:47.470Z,3.45
2023-04-15T12:59:16.131Z,1.67
2023-04-15T13:01:43.302Z,3.08
2023-04-15T13:04:10.862Z,2.72
2023-04-15T13:06:38.430Z,5.63
2023-04-15T13:09:06.131Z,2.03
2023-04-15T13:11:33.921Z,2.45
2023-04-15T13:14:02.250Z,2.45
2023-04-15T13:16:30.000Z,2.05
2023-04-15T13:18:57.274Z,1.80
2023-04-15T13:21:24.268Z,2.58
2023-04-15T13:23:51.744Z,1.63
2023-04-15T13:26:19.325Z,1.45
2023-04-15T13:28:46.481Z,1.55
2023-04-15T13:31:13.569Z,1.20
2023-04-15T13:33:41.012Z,1.20
2023-04-15T13:36:08.405Z,1.35
2023-04-15T13:38:35.580Z,0.90
2023-04-15T13:41:02.675Z,1.25
2023-04-15T13:43:29.747Z,1.33
2023-04-15T13:45:56.785Z,1.05
2023-04-15T13:48:23.947Z,1.05
2023-04-15T13:50:50.995Z,1.10
2023-04-15T13:53:18.047Z,1.27
2023-04-15T13:55:45.172Z,1.20
2023-04-15T13:58:12.266Z,0.82
2023-04-15T14:00:39.490Z,0.88
2023-04-15T14:03:06.751Z,1.20
2023-04-15T14:05:34.363Z,0.93
2023-04-15T14:08:01.504Z,0.90
2023-04-15T14:10:28.551Z,1.17
2023-04-15T14:12:55.644Z,0.85
2023-04-15T14:15:22.696Z,1.15
2023-04-15T14:17:49.801Z,1.10
2023-04-15T14:20:17.409Z,0.90
2023-04-15T14:22:44.521Z,1.25
2023-04-15T14:25:17.214Z,0.77
2023-04-15T14:27:50.572Z,1.00
2023-04-15T14:30:17.635Z,1.50
2023-04-15T14:32:44.817Z,1.13
2023-04-15T14:35:11.887Z,1.50
2023-04-15T14:37:38.907Z,3.95
2023-04-15T14:40:06.628Z,3.67
2023-04-15T14:42:33.919Z,1.70
2023-04-15T14:45:01.189Z,2.30
2023-04-15T14:47:28.437Z,3.15
2023-04-15T14:49:55.534Z,3.85
2023-04-15T14:52:22.594Z,3.42
2023-04-15T14:54:49.596Z,3.83
2023-04-15T14:57:16.600Z,1.17
2023-04-15T14:59:43.560Z,1.58
2023-04-15T15:02:12.791Z,1.40
2023-04-15T15:04:41.843Z,1.05
2023-04-15T15:07:08.983Z,1.23
2023-04-15T15:09:36.678Z,0.95
2023-04-15T15:12:03.898Z,1.20
2023-04-15T15:14:31.010Z,1.20
2023-04-15T15:16:58.062Z,1.17
2023-04-15T15:19:25.310Z,1.20
2023-04-15T15:21:52.407Z,1.20
2023-04-15T15:24:19.430Z,1.30
2023-04-15T15:26:46.603Z,1.30
2023-04-15T15:29:13.701Z,1.27
2023-04-15T15:31:40.688Z,1.00
2023-04-15T15:34:07.738Z,1.33
2023-04-15T15:36:34.828Z,1.10
2023-04-15T15:39:01.979Z,1.30
2023-04-15T15:41:29.143Z,1.10
2023-04-15T15:43:56.163Z,1.30
2023-04-15T15:46:24.981Z,1.38
2023-04-15T15:48:52.047Z,1.20
2023-04-15T15:51:20.070Z,1.38
2023-04-15T15:53:47.057Z,1.20
2023-04-15T15:56:14.324Z,1.90
2023-04-15T15:58:43.679Z,1.70
2023-04-15T16:01:11.231Z,1.40
2023-04-15T16:03:38.492Z,1.23
2023-04-15T16:06:05.640Z,1.48
2023-04-15T16:08:32.669Z,1.80
2023-04-15T16:10:59.989Z,2.15
2023-04-15T16:13:27.715Z,1.52
2023-04-15T16:15:54.749Z,1.92
2023-04-15T16:18:21.774Z,2.03
2023-04-15T16:20:48.801Z,3.08
2023-04-15T16:23:17.077Z,2.22
2023-04-15T16:25:44.750Z,2.15
2023-04-15T16:28:23.122Z,2.00
2023-04-15T16:30:53.695Z,2.03
2023-04-15T16:33:21.046Z,2.00
2023-04-15T16:35:48.152Z,2.30
2023-04-15T16:38:15.516Z,2.42
2023-04-15T16:40:42.601Z,1.92
2023-04-15T16:43:11.379Z,2.63
2023-04-15T16:45:38.556Z,2.55
2023-04-15T16:48:05.930Z,2.33
2023-04-15T16:50:33.058Z,2.58
2023-04-15T16:53:01.145Z,2.38
2023-04-15T16:55:28.311Z,2.78
2023-04-15T16:58:03.342Z,2.22
2023-04-15T17:00:32.799Z,2.88
2023-04-15T17:03:00.489Z,2.10
2023-04-15T17:05:27.878Z,1.65
2023-04-15T17:07:55.403Z,2.47
2023-04-15T17:10:23.252Z,3.40
2023-04-15T17:12:53.127Z,2.13
2023-04-15T17:15:20.217Z,2.25
2023-04-15T17:17:47.294Z,1.42
2023-04-15T17:20:14.670Z,1.90
2023-04-15T17:22:41.882Z,2.42
2023-04-15T17:25:09.046Z,2.38
2023-04-15T17:27:36.058Z,2.25
2023-04-15T17:30:03.163Z,2.17
2023-04-15T17:32:34.185Z,1.55
2023-04-15T17:35:02.795Z,1.48
2023-04-15T17:37:29.922Z,2.20
2023-04-15T17:39:56.932Z,3.33
2023-04-15T17:42:24.023Z,3.65
2023-04-15T17:44:51.024Z,1.67
2023-04-15T17:47:18.229Z,1.70
2023-04-15T17:49:45.326Z,2.88
2023-04-15T17:52:12.580Z,2.80
2023-04-15T17:54:39.604Z,1.90
2023-04-15T17:57:06.656Z,1.20
2023-04-15T17:59:34.066Z,1.40
2023-04-15T18:02:01.247Z,1.30
2023-04-15T18:04:28.451Z,1.20
2023-04-15T18:06:55.636Z,0.88
2023-04-15T18:09:22.640Z,0.90
2023-04-15T18:11:49.659Z,1.00
2023-04-15T18:14:27.008Z,1.20
2023-04-15T18:17:01.903Z,0.85
2023-04-15T18:19:29.869Z,1.23
2023-04-15T18:21:56.950Z,1.15
2023-04-15T18:24:23.921Z,1.15
2023-04-15T18:26:52.056Z,1.17
2023-04-15T18:29:19.238Z,1.10
2023-04-15T18:31:46.268Z,0.80
2023-04-15T18:34:13.269Z,1.23
2023-04-15T18:36:40.400Z,1.13
2023-04-15T18:39:07.747Z,0.80
2023-04-15T18:41:35.096Z,1.10
2023-04-15T18:44:02.178Z,0.80
2023-04-15T18:46:29.421Z,1.05
2023-04-15T18:48:56.486Z,0.80
2023-04-15T18:51:23.641Z,0.70
2023-04-15T18:53:51.419Z,1.00
2023-04-15T18:56:18.516Z,0.85
2023-04-15T18:59:08.540Z,0.75
2023-04-15T19:01:32.699Z,0.93
2023-04-15T19:03:59.828Z,1.00
2023-04-15T19:06:28.523Z,0.90
2023-04-15T19:08:57.822Z,0.52
2023-04-15T19:11:25.762Z,0.47
2023-04-15T19:13:53.056Z,1.15
2023-04-15T19:16:20.401Z,0.68
2023-04-15T19:18:47.448Z,0.70
2023-04-15T19:21:14.864Z,0.90
2023-04-15T19:23:43.004Z,1.50
2023-04-15T19:26:11.409Z,3.13
2023-04-15T19:28:38.575Z,7.05
2023-04-15T19:31:06.599Z,1.50
2023-04-15T19:33:34.112Z,5.03
2023-04-15T19:36:03.956Z,4.68
2023-04-15T19:38:31.769Z,5.82
2023-04-15T19:40:58.924Z,1.65
2023-04-15T19:43:25.962Z,1.55
2023-04-15T19:45:54.564Z,1.10
2023-04-15T19:48:22.963Z,0.90
2023-04-15T19:50:50.096Z,1.20
2023-04-15T19:53:17.246Z,1.10
2023-04-15T19:55:44.385Z,1.27
2023-04-15T19:58:11.698Z,1.80
2023-04-15T20:00:38.889Z,1.50
2023-04-15T20:03:06.281Z,1.00
2023-04-15T20:05:33.479Z,1.50
2023-04-15T20:08:01.289Z,1.67
2023-04-15T20:10:28.618Z,1.20
2023-04-15T20:12:55.661Z,1.33
2023-04-15T20:15:23.878Z,1.75
2023-04-15T20:17:51.372Z,2.00
2023-04-15T20:20:18.530Z,1.60
2023-04-15T20:22:45.679Z,1.30
2023-04-15T20:25:12.920Z,1.30
2023-04-15T20:27:40.306Z,1.20
2023-04-15T20:30:07.881Z,1.48
2023-04-15T20:32:35.261Z,1.42
2023-04-15T20:35:05.027Z,1.58
2023-04-15T20:37:33.537Z,1.33
2023-04-15T20:40:01.540Z,1.80
2023-04-15T20:42:33.484Z,0.95
2023-04-15T20:45:01.127Z,1.50
2023-04-15T20:47:28.333Z,1.70
2023-04-15T20:49:55.440Z,1.65
2023-04-15T20:52:22.498Z,1.42
2023-04-15T20:54:50.279Z,1.48
2023-04-15T20:57:17.581Z,1.85
2023-04-15T20:59:44.686Z,2.28
2023-04-15T21:02:12.097Z,1.98
2023-04-15T21:04:39.185Z,4.00
2023-04-15T21:07:06.264Z,4.07
2023-04-15T21:09:33.365Z,4.88
2023-04-15T21:12:02.162Z,3.10
2023-04-15T21:14:29.464Z,7.30
2023-04-15T21:16:57.480Z,5.82
2023-04-15T21:19:24.538Z,3.80
2023-04-15T21:21:52.264Z,6.20
2023-04-15T21:24:19.339Z,3.88
2023-04-15T21:26:46.348Z,3.90
2023-04-15T21:29:13.730Z,3.63
2023-04-15T21:31:41.038Z,4.03
2023-04-15T21:34:08.359Z,4.47
2023-04-15T21:36:35.824Z,4.05
2023-04-15T21:39:03.030Z,4.40
2023-04-15T21:41:30.255Z,4.95
2023-04-15T21:43:57.233Z,5.25
2023-04-15T21:46:25.714Z,5.28
2023-04-15T21:48:59.911Z,6.28
2023-04-15T21:51:27.619Z,6.78
2023-04-15T21:53:54.766Z,6.18
2023-04-15T21:56:23.967Z,5.65
2023-04-15T21:58:54.013Z,6.25
2023-04-15T22:01:21.311Z,6.75
2023-04-15T22:03:48.827Z,6.68
2023-04-15T22:06:16.241Z,7.13
2023-04-15T22:08:55.223Z,7.03
2023-04-15T22:11:27.219Z,6.80
2023-04-15T22:13:54.858Z,7.45
2023-04-15T22:16:22.056Z,6.78
2023-04-15T22:18:49.149Z,7.78
2023-04-15T22:21:16.394Z,7.13
2023-04-15T22:23:47.611Z,7.50
2023-04-15T22:26:14.861Z,7.28
2023-04-15T22:28:42.099Z,6.80
2023-04-15T22:31:09.267Z,6.20
2023-04-15T22:33:36.381Z,6.35
2023-04-15T22:36:03.563Z,5.95
2023-04-15T22:38:30.826Z,6.55
2023-04-15T22:40:58.203Z,6.32
2023-04-15T22:43:25.990Z,6.05
2023-04-15T22:45:54.694Z,6.15
2023-04-15T22:48:21.899Z,6.18
2023-04-15T22:50:49.295Z,5.85
2023-04-15T22:53:20.031Z,6.30
2023-04-15T22:55:48.206Z,5.63
2023-04-15T22:58:16.969Z,6.25
2023-04-15T23:00:44.511Z,5.57
2023-04-15T23:03:11.842Z,5.95
2023-04-15T23:05:42.435Z,5.43
2023-04-15T23:08:09.454Z,5.78
2023-04-15T23:10:37.238Z,6.32
2023-04-15T23:13:04.227Z,5.80
2023-04-15T23:15:31.351Z,7.07
2023-04-15T23:18:00.290Z,6.70
2023-04-15T23:20:27.406Z,6.72
2023-04-15T23:22:54.396Z,6.00
2023-04-15T23:25:22.595Z,7.05
2023-04-15T23:27:49.654Z,7.85
2023-04-15T23:30:16.742Z,6.80
2023-04-15T23:32:43.910Z,6.63
2023-04-15T23:35:11.166Z,7.35
2023-04-15T23:37:38.148Z,7.40
2023-04-15T23:40:05.892Z,8.52
2023-04-15T23:42:33.016Z,8.50
2023-04-15T23:45:00.191Z,8.35
2023-04-15T23:47:27.291Z,8.70
2023-04-15T23:49:54.278Z,7.55
2023-04-15T23:52:21.276Z,8.75
2023-04-15T23:54:48.252Z,9.07
2023-04-15T23:57:15.379Z,9.25
2023-04-15T23:59:42.391Z,8.57
